sensor_id;sensor_type;location;lat;lon;timestamp;pressure;altitude;pressure_sealevel;temperature;humidity
73633;BME280;61927;50.080;14.418;2022-08-20T00:01:00;98955.72;;;20.61;76.14
73633;BME280;61927;50.080;14.418;2022-08-20T00:03:28;98956.59;;;20.54;76.70
73633;BME280;61927;50.080;14.418;2022-08-20T00:06:03;98966.19;;;20.48;76.81
73633;BME280;61927;50.080;14.418;2022-08-20T00:08:29;98976.13;;;20.48;76.78
73633;BME280;61927;50.080;14.418;2022-08-20T00:10:56;98978.47;;;20.59;77.00
73633;BME280;61927;50.080;14.418;2022-08-20T00:13:29;98975.78;;;20.67;76.50
73633;BME280;61927;50.080;14.418;2022-08-20T00:15:55;98968.84;;;20.73;76.00
73633;BME280;61927;50.080;14.418;2022-08-20T00:18:22;98970.19;;;20.77;75.35
73633;BME280;61927;50.080;14.418;2022-08-20T00:20:50;98975.25;;;20.72;75.69
73633;BME280;61927;50.080;14.418;2022-08-20T00:23:16;98969.88;;;20.63;75.95
73633;BME280;61927;50.080;14.418;2022-08-20T00:25:42;98964.50;;;20.63;76.08
73633;BME280;61927;50.080;14.418;2022-08-20T00:28:09;98983.03;;;20.58;76.36
73633;BME280;61927;50.080;14.418;2022-08-20T00:30:36;98972.25;;;20.50;76.43
73633;BME280;61927;50.080;14.418;2022-08-20T00:33:09;98981.34;;;20.41;76.94
73633;BME280;61927;50.080;14.418;2022-08-20T00:35:37;98974.44;;;20.47;76.82
73633;BME280;61927;50.080;14.418;2022-08-20T00:38:04;98977.13;;;20.47;76.86
73633;BME280;61927;50.080;14.418;2022-08-20T00:40:37;98970.91;;;20.46;76.92
73633;BME280;61927;50.080;14.418;2022-08-20T00:43:05;98976.25;;;20.38;77.20
73633;BME280;61927;50.080;14.418;2022-08-20T00:45:33;98968.72;;;20.42;77.48
73633;BME280;61927;50.080;14.418;2022-08-20T00:47:59;98961.94;;;20.38;77.40
73633;BME280;61927;50.080;14.418;2022-08-20T00:50:31;98962.97;;;20.37;77.40
73633;BME280;61927;50.080;14.418;2022-08-20T00:52:59;98971.56;;;20.32;77.37
73633;BME280;61927;50.080;14.418;2022-08-20T00:55:27;98969.69;;;20.24;77.79
73633;BME280;61927;50.080;14.418;2022-08-20T00:57:56;98970.03;;;20.29;77.52
73633;BME280;61927;50.080;14.418;2022-08-20T01:00:29;98971.22;;;20.35;77.30
73633;BME280;61927;50.080;14.418;2022-08-20T01:02:57;98968.69;;;20.33;77.64
73633;BME280;61927;50.080;14.418;2022-08-20T01:05:25;98970.75;;;20.40;77.14
73633;BME280;61927;50.080;14.418;2022-08-20T01:07:51;98962.50;;;20.41;77.25
73633;BME280;61927;50.080;14.418;2022-08-20T01:10:23;98969.91;;;20.47;77.46
73633;BME280;61927;50.080;14.418;2022-08-20T01:12:51;98960.28;;;20.45;77.01
73633;BME280;61927;50.080;14.418;2022-08-20T01:15:20;98957.41;;;20.38;77.38
73633;BME280;61927;50.080;14.418;2022-08-20T01:17:51;98961.09;;;20.21;77.94
73633;BME280;61927;50.080;14.418;2022-08-20T01:20:26;98959.75;;;20.17;77.74
73633;BME280;61927;50.080;14.418;2022-08-20T01:28:40;98948.66;;;20.04;78.06
73633;BME280;61927;50.080;14.418;2022-08-20T01:31:11;98956.22;;;20.00;78.56
73633;BME280;61927;50.080;14.418;2022-08-20T01:33:37;98959.59;;;20.02;78.55
73633;BME280;61927;50.080;14.418;2022-08-20T01:36:04;98966.16;;;19.99;79.01
73633;BME280;61927;50.080;14.418;2022-08-20T01:38:30;98964.63;;;20.05;78.66
73633;BME280;61927;50.080;14.418;2022-08-20T01:43:45;98964.81;;;20.20;77.93
73633;BME280;61927;50.080;14.418;2022-08-20T01:46:11;98968.00;;;20.23;77.88
73633;BME280;61927;50.080;14.418;2022-08-20T01:48:39;98967.50;;;20.28;77.48
73633;BME280;61927;50.080;14.418;2022-08-20T01:51:14;98964.81;;;20.28;77.33
73633;BME280;61927;50.080;14.418;2022-08-20T01:53:47;98956.72;;;20.36;77.27
73633;BME280;61927;50.080;14.418;2022-08-20T01:56:19;98953.19;;;20.36;77.04
73633;BME280;61927;50.080;14.418;2022-08-20T01:58:47;98953.72;;;20.39;76.63
73633;BME280;61927;50.080;14.418;2022-08-20T02:01:27;98952.34;;;20.35;77.05
73633;BME280;61927;50.080;14.418;2022-08-20T02:03:53;98950.66;;;20.34;76.79
73633;BME280;61927;50.080;14.418;2022-08-20T02:06:22;98944.44;;;20.33;77.09
73633;BME280;61927;50.080;14.418;2022-08-20T02:08:58;98946.28;;;20.33;76.80
73633;BME280;61927;50.080;14.418;2022-08-20T02:11:25;98941.91;;;20.16;77.63
73633;BME280;61927;50.080;14.418;2022-08-20T02:13:52;98949.16;;;20.07;77.87
73633;BME280;61927;50.080;14.418;2022-08-20T02:16:20;98955.38;;;20.08;78.43
73633;BME280;61927;50.080;14.418;2022-08-20T02:18:48;98955.38;;;20.08;78.18
73633;BME280;61927;50.080;14.418;2022-08-20T02:21:13;98956.91;;;20.10;78.15
73633;BME280;61927;50.080;14.418;2022-08-20T02:23:39;98966.66;;;20.11;78.09
73633;BME280;61927;50.080;14.418;2022-08-20T02:26:05;98960.25;;;20.12;78.05
73633;BME280;61927;50.080;14.418;2022-08-20T02:28:32;98957.91;;;20.09;77.94
73633;BME280;61927;50.080;14.418;2022-08-20T02:30:57;98955.38;;;20.08;77.82
73633;BME280;61927;50.080;14.418;2022-08-20T02:33:24;98963.97;;;20.11;77.84
73633;BME280;61927;50.080;14.418;2022-08-20T02:35:51;98971.53;;;20.16;77.28
73633;BME280;61927;50.080;14.418;2022-08-20T02:38:17;98967.16;;;20.15;77.42
73633;BME280;61927;50.080;14.418;2022-08-20T02:40:44;98964.31;;;20.08;77.73
73633;BME280;61927;50.080;14.418;2022-08-20T02:43:10;98967.16;;;20.07;77.95
73633;BME280;61927;50.080;14.418;2022-08-20T02:45:37;98965.16;;;20.09;78.02
73633;BME280;61927;50.080;14.418;2022-08-20T02:48:11;98960.09;;;20.14;77.92
73633;BME280;61927;50.080;14.418;2022-08-20T02:50:42;98962.78;;;20.22;77.71
73633;BME280;61927;50.080;14.418;2022-08-20T02:53:08;98960.78;;;20.24;77.35
73633;BME280;61927;50.080;14.418;2022-08-20T02:55:34;98966.34;;;20.30;77.18
73633;BME280;61927;50.080;14.418;2022-08-20T02:57:59;98966.50;;;20.29;77.03
73633;BME280;61927;50.080;14.418;2022-08-20T03:00:26;98964.31;;;20.16;77.75
73633;BME280;61927;50.080;14.418;2022-08-20T03:02:53;98957.56;;;20.04;78.19
73633;BME280;61927;50.080;14.418;2022-08-20T03:05:18;98951.34;;;20.04;78.25
73633;BME280;61927;50.080;14.418;2022-08-20T03:07:46;98963.13;;;20.03;78.12
73633;BME280;61927;50.080;14.418;2022-08-20T03:10:12;98963.47;;;20.08;78.18
73633;BME280;61927;50.080;14.418;2022-08-20T03:12:40;98955.38;;;20.08;78.20
73633;BME280;61927;50.080;14.418;2022-08-20T03:15:07;98948.31;;;20.07;78.10
73633;BME280;61927;50.080;14.418;2022-08-20T03:17:34;98946.97;;;20.03;78.09
73633;BME280;61927;50.080;14.418;2022-08-20T03:19:59;98943.25;;;19.95;78.59
73633;BME280;61927;50.080;14.418;2022-08-20T03:22:25;98938.19;;;19.92;78.64
73633;BME280;61927;50.080;14.418;2022-08-20T03:24:50;98937.38;;;20.00;78.78
73633;BME280;61927;50.080;14.418;2022-08-20T03:27:16;98934.66;;;20.08;78.24
73633;BME280;61927;50.080;14.418;2022-08-20T03:29:41;98939.88;;;20.10;77.88
73633;BME280;61927;50.080;14.418;2022-08-20T03:32:07;98942.25;;;20.13;77.92
73633;BME280;61927;50.080;14.418;2022-08-20T03:34:33;98945.28;;;20.10;77.95
73633;BME280;61927;50.080;14.418;2022-08-20T03:36:59;98938.19;;;20.00;78.26
73633;BME280;61927;50.080;14.418;2022-08-20T03:39:25;98941.56;;;19.94;78.54
73633;BME280;61927;50.080;14.418;2022-08-20T03:41:50;98945.78;;;19.97;78.69
73633;BME280;61927;50.080;14.418;2022-08-20T03:44:16;98946.28;;;19.92;79.02
73633;BME280;61927;50.080;14.418;2022-08-20T03:46:41;98943.09;;;19.97;78.44
73633;BME280;61927;50.080;14.418;2022-08-20T03:49:07;98948.81;;;20.02;78.59
73633;BME280;61927;50.080;14.418;2022-08-20T03:51:32;98946.44;;;19.99;78.25
73633;BME280;61927;50.080;14.418;2022-08-20T03:53:58;98939.22;;;19.99;78.22
73633;BME280;61927;50.080;14.418;2022-08-20T03:56:24;98944.59;;;19.99;78.39
73633;BME280;61927;50.080;14.418;2022-08-20T03:58:50;98940.22;;;20.07;78.22
73633;BME280;61927;50.080;14.418;2022-08-20T04:01:16;98941.56;;;20.11;77.78
73633;BME280;61927;50.080;14.418;2022-08-20T04:03:41;98953.88;;;20.13;77.81
73633;BME280;61927;50.080;14.418;2022-08-20T04:06:07;98961.75;;;19.98;78.10
73633;BME280;61927;50.080;14.418;2022-08-20T04:08:33;98960.25;;;19.96;78.30
73633;BME280;61927;50.080;14.418;2022-08-20T04:10:59;98956.19;;;19.92;78.11
73633;BME280;61927;50.080;14.418;2022-08-20T04:13:26;98963.25;;;19.85;78.34
73633;BME280;61927;50.080;14.418;2022-08-20T04:15:53;98958.88;;;19.84;78.45
73633;BME280;61927;50.080;14.418;2022-08-20T04:18:23;98966.13;;;19.83;78.55
73633;BME280;61927;50.080;14.418;2022-08-20T04:20:50;98965.09;;;19.76;78.58
73633;BME280;61927;50.080;14.418;2022-08-20T04:23:17;98966.09;;;19.75;78.69
73633;BME280;61927;50.080;14.418;2022-08-20T04:25:44;98969.47;;;19.77;78.87
73633;BME280;61927;50.080;14.418;2022-08-20T04:28:14;98970.31;;;19.78;78.38
73633;BME280;61927;50.080;14.418;2022-08-20T04:30:40;98980.72;;;19.73;78.99
73633;BME280;61927;50.080;14.418;2022-08-20T04:33:07;98970.31;;;19.78;78.65
73633;BME280;61927;50.080;14.418;2022-08-20T04:35:33;98975.56;;;19.87;78.35
73633;BME280;61927;50.080;14.418;2022-08-20T04:38:03;98975.72;;;19.86;78.39
73633;BME280;61927;50.080;14.418;2022-08-20T04:40:29;98977.91;;;19.90;78.25
73633;BME280;61927;50.080;14.418;2022-08-20T04:43:13;98982.41;;;19.74;78.63
73633;BME280;61927;50.080;14.418;2022-08-20T04:45:39;98986.28;;;19.71;78.85
73633;BME280;61927;50.080;14.418;2022-08-20T04:48:05;98977.38;;;19.79;78.96
73633;BME280;61927;50.080;14.418;2022-08-20T04:50:33;98991.00;;;19.77;78.97
73633;BME280;61927;50.080;14.418;2022-08-20T04:53:02;98996.56;;;19.76;78.58
73633;BME280;61927;50.080;14.418;2022-08-20T04:55:27;98997.06;;;19.71;78.78
73633;BME280;61927;50.080;14.418;2022-08-20T04:57:54;98995.19;;;19.72;78.85
73633;BME280;61927;50.080;14.418;2022-08-20T05:00:22;98994.72;;;19.76;78.92
73633;BME280;61927;50.080;14.418;2022-08-20T05:02:47;99000.44;;;19.81;78.47
73633;BME280;61927;50.080;14.418;2022-08-20T05:05:13;99008.16;;;19.76;78.61
73633;BME280;61927;50.080;14.418;2022-08-20T05:07:43;99006.13;;;19.70;78.57
73633;BME280;61927;50.080;14.418;2022-08-20T05:10:15;99012.19;;;19.72;78.77
73633;BME280;61927;50.080;14.418;2022-08-20T05:12:42;99008.16;;;19.76;78.48
73633;BME280;61927;50.080;14.418;2022-08-20T05:15:09;99006.00;;;19.80;78.02
73633;BME280;61927;50.080;14.418;2022-08-20T05:17:36;99014.72;;;19.74;77.77
73633;BME280;61927;50.080;14.418;2022-08-20T05:20:04;99011.88;;;19.75;78.01
73633;BME280;61927;50.080;14.418;2022-08-20T05:22:31;99015.06;;;19.71;77.99
73633;BME280;61927;50.080;14.418;2022-08-20T05:24:56;99007.81;;;19.71;78.19
73633;BME280;61927;50.080;14.418;2022-08-20T05:27:24;99009.69;;;19.79;77.40
73633;BME280;61927;50.080;14.418;2022-08-20T05:29:59;99013.94;;;19.89;76.89
73633;BME280;61927;50.080;14.418;2022-08-20T05:32:26;99004.78;;;19.74;77.32
73633;BME280;61927;50.080;14.418;2022-08-20T05:34:51;99009.16;;;19.75;77.10
73633;BME280;61927;50.080;14.418;2022-08-20T05:37:17;99004.59;;;19.67;77.63
73633;BME280;61927;50.080;14.418;2022-08-20T05:39:43;99003.41;;;19.62;77.57
73633;BME280;61927;50.080;14.418;2022-08-20T05:42:08;99006.09;;;19.62;78.04
73633;BME280;61927;50.080;14.418;2022-08-20T05:44:36;99010.22;;;19.48;78.12
73633;BME280;61927;50.080;14.418;2022-08-20T05:47:03;99007.44;;;19.24;79.06
73633;BME280;61927;50.080;14.418;2022-08-20T05:49:29;99013.97;;;19.21;79.18
73633;BME280;61927;50.080;14.418;2022-08-20T05:51:55;99004.91;;;19.22;78.77
73633;BME280;61927;50.080;14.418;2022-08-20T05:54:22;99013.38;;;19.35;78.27
73633;BME280;61927;50.080;14.418;2022-08-20T05:56:49;99015.53;;;19.32;78.15
73633;BME280;61927;50.080;14.418;2022-08-20T05:59:14;99018.50;;;19.21;78.47
73633;BME280;61927;50.080;14.418;2022-08-20T06:01:41;99024.69;;;19.13;78.78
73633;BME280;61927;50.080;14.418;2022-08-20T06:04:08;99022.00;;;19.13;78.99
73633;BME280;61927;50.080;14.418;2022-08-20T06:06:55;99029.66;;;19.34;79.03
73633;BME280;61927;50.080;14.418;2022-08-20T06:09:23;99021.13;;;19.39;77.66
73633;BME280;61927;50.080;14.418;2022-08-20T06:11:49;99038.94;;;19.40;77.41
73633;BME280;61927;50.080;14.418;2022-08-20T06:14:15;99031.63;;;19.24;77.92
73633;BME280;61927;50.080;14.418;2022-08-20T06:16:44;99032.44;;;19.16;78.18
73633;BME280;61927;50.080;14.418;2022-08-20T06:19:10;99038.28;;;19.12;79.23
73633;BME280;61927;50.080;14.418;2022-08-20T06:21:36;99032.13;;;19.19;79.21
73633;BME280;61927;50.080;14.418;2022-08-20T06:24:02;99044.25;;;19.23;78.85
73633;BME280;61927;50.080;14.418;2022-08-20T06:26:28;99036.00;;;19.25;78.93
73633;BME280;61927;50.080;14.418;2022-08-20T06:28:53;99042.31;;;19.42;78.77
73633;BME280;61927;50.080;14.418;2022-08-20T06:31:19;99041.69;;;19.48;77.96
73633;BME280;61927;50.080;14.418;2022-08-20T06:33:46;99039.47;;;19.43;77.95
73633;BME280;61927;50.080;14.418;2022-08-20T06:36:11;99045.50;;;19.37;78.27
73633;BME280;61927;50.080;14.418;2022-08-20T06:38:37;99040.09;;;19.37;77.85
73633;BME280;61927;50.080;14.418;2022-08-20T06:41:02;99040.75;;;19.31;78.24
73633;BME280;61927;50.080;14.418;2022-08-20T06:43:28;99042.13;;;19.35;77.86
73633;BME280;61927;50.080;14.418;2022-08-20T06:45:53;99046.34;;;19.38;76.98
73633;BME280;61927;50.080;14.418;2022-08-20T06:48:22;99046.69;;;19.43;77.48
73633;BME280;61927;50.080;14.418;2022-08-20T06:50:48;99051.66;;;19.55;76.99
73633;BME280;61927;50.080;14.418;2022-08-20T06:53:17;99062.13;;;19.66;75.76
73633;BME280;61927;50.080;14.418;2022-08-20T06:55:51;99067.84;;;19.63;75.93
73633;BME280;61927;50.080;14.418;2022-08-20T06:58:17;99062.28;;;19.57;76.29
73633;BME280;61927;50.080;14.418;2022-08-20T07:00:44;99062.00;;;19.42;77.06
73633;BME280;61927;50.080;14.418;2022-08-20T07:03:10;99061.31;;;19.40;76.89
73633;BME280;61927;50.080;14.418;2022-08-20T07:05:40;99069.06;;;19.43;76.87
73633;BME280;61927;50.080;14.418;2022-08-20T07:08:12;99068.34;;;19.59;76.51
73633;BME280;61927;50.080;14.418;2022-08-20T07:10:40;99073.63;;;19.77;75.19
73633;BME280;61927;50.080;14.418;2022-08-20T07:13:08;99068.00;;;19.62;75.12
73633;BME280;61927;50.080;14.418;2022-08-20T07:15:34;99073.03;;;19.57;75.50
73633;BME280;61927;50.080;14.418;2022-08-20T07:18:02;99071.97;;;19.50;75.87
73633;BME280;61927;50.080;14.418;2022-08-20T07:20:30;99071.28;;;19.48;75.74
73633;BME280;61927;50.080;14.418;2022-08-20T07:22:57;99079.66;;;19.45;75.75
73633;BME280;61927;50.080;14.418;2022-08-20T07:25:23;99085.38;;;19.42;76.38
73633;BME280;61927;50.080;14.418;2022-08-20T07:27:50;99080.00;;;19.42;76.41
73633;BME280;61927;50.080;14.418;2022-08-20T07:30:20;99082.03;;;19.48;75.88
73633;BME280;61927;50.080;14.418;2022-08-20T07:33:04;99090.34;;;19.54;75.81
73633;BME280;61927;50.080;14.418;2022-08-20T07:35:30;99095.56;;;19.56;75.31
73633;BME280;61927;50.080;14.418;2022-08-20T07:37:55;99096.97;;;19.42;75.06
73633;BME280;61927;50.080;14.418;2022-08-20T07:40:24;99097.63;;;19.36;75.72
73633;BME280;61927;50.080;14.418;2022-08-20T07:42:53;99101.63;;;19.32;76.20
73633;BME280;61927;50.080;14.418;2022-08-20T07:45:19;99094.94;;;19.36;75.57
73633;BME280;61927;50.080;14.418;2022-08-20T07:47:45;99097.28;;;19.39;75.64
73633;BME280;61927;50.080;14.418;2022-08-20T07:50:14;99105.38;;;19.39;75.35
73633;BME280;61927;50.080;14.418;2022-08-20T07:52:40;99101.09;;;19.28;76.59
73633;BME280;61927;50.080;14.418;2022-08-20T07:55:09;99110.44;;;19.42;75.81
73633;BME280;61927;50.080;14.418;2022-08-20T07:57:35;99107.91;;;19.41;75.80
73633;BME280;61927;50.080;14.418;2022-08-20T08:00:03;99103.19;;;19.43;76.00
73633;BME280;61927;50.080;14.418;2022-08-20T08:02:29;99104.66;;;19.55;75.62
73633;BME280;61927;50.080;14.418;2022-08-20T08:04:55;99110.72;;;19.57;74.94
73633;BME280;61927;50.080;14.418;2022-08-20T08:07:21;99114.16;;;19.49;76.24
73633;BME280;61927;50.080;14.418;2022-08-20T08:09:48;99116.09;;;19.57;75.91
73633;BME280;61927;50.080;14.418;2022-08-20T08:12:15;99116.50;;;19.70;75.53
73633;BME280;61927;50.080;14.418;2022-08-20T08:14:43;99116.13;;;19.65;75.32
73633;BME280;61927;50.080;14.418;2022-08-20T08:17:10;99118.66;;;19.66;75.81
73633;BME280;61927;50.080;14.418;2022-08-20T08:19:42;99121.03;;;19.70;75.09
73633;BME280;61927;50.080;14.418;2022-08-20T08:22:11;99135.41;;;19.52;75.08
73633;BME280;61927;50.080;14.418;2022-08-20T08:24:38;99131.59;;;19.37;75.70
73633;BME280;61927;50.080;14.418;2022-08-20T08:27:04;99140.22;;;19.23;76.83
73633;BME280;61927;50.080;14.418;2022-08-20T08:29:32;99143.81;;;19.31;77.55
73633;BME280;61927;50.080;14.418;2022-08-20T08:32:03;99143.72;;;19.15;76.32
73633;BME280;61927;50.080;14.418;2022-08-20T08:34:31;99145.72;;;19.13;76.79
73633;BME280;61927;50.080;14.418;2022-08-20T08:36:56;99145.75;;;18.95;77.60
73633;BME280;61927;50.080;14.418;2022-08-20T08:39:23;99145.50;;;18.89;76.80
73633;BME280;61927;50.080;14.418;2022-08-20T08:41:50;99154.97;;;18.93;77.44
73633;BME280;61927;50.080;14.418;2022-08-20T08:46:49;99158.13;;;18.88;77.34
73633;BME280;61927;50.080;14.418;2022-08-20T08:49:19;99153.28;;;18.92;77.45
73633;BME280;61927;50.080;14.418;2022-08-20T08:51:50;99150.97;;;18.97;77.22
73633;BME280;61927;50.080;14.418;2022-08-20T08:54:22;99160.91;;;19.22;76.23
73633;BME280;61927;50.080;14.418;2022-08-20T08:56:49;99159.47;;;19.10;75.17
73633;BME280;61927;50.080;14.418;2022-08-20T08:59:16;99168.09;;;18.96;75.77
73633;BME280;61927;50.080;14.418;2022-08-20T09:01:48;99165.72;;;18.75;76.25
73633;BME280;61927;50.080;14.418;2022-08-20T09:04:16;99166.72;;;18.74;76.89
73633;BME280;61927;50.080;14.418;2022-08-20T09:06:43;99168.34;;;18.67;76.31
73633;BME280;61927;50.080;14.418;2022-08-20T09:09:24;99163.59;;;18.51;76.15
73633;BME280;61927;50.080;14.418;2022-08-20T09:11:53;99166.59;;;18.48;75.83
73633;BME280;61927;50.080;14.418;2022-08-20T09:14:20;99168.34;;;18.39;75.42
73633;BME280;61927;50.080;14.418;2022-08-20T09:16:46;99173.81;;;18.48;75.85
73633;BME280;61927;50.080;14.418;2022-08-20T09:19:11;99167.19;;;18.42;75.92
73633;BME280;61927;50.080;14.418;2022-08-20T09:21:37;99173.88;;;18.38;76.15
73633;BME280;61927;50.080;14.418;2022-08-20T09:24:02;99167.03;;;18.26;76.17
73633;BME280;61927;50.080;14.418;2022-08-20T09:26:29;99171.19;;;18.38;76.09
73633;BME280;61927;50.080;14.418;2022-08-20T09:28:55;99166.59;;;18.48;75.51
73633;BME280;61927;50.080;14.418;2022-08-20T09:31:20;99166.09;;;18.62;75.25
73633;BME280;61927;50.080;14.418;2022-08-20T09:33:49;99174.56;;;18.67;74.38
73633;BME280;61927;50.080;14.418;2022-08-20T09:36:15;99176.53;;;18.65;74.70
73633;BME280;61927;50.080;14.418;2022-08-20T09:38:40;99180.81;;;18.58;75.81
73633;BME280;61927;50.080;14.418;2022-08-20T09:41:05;99179.81;;;18.59;75.91
73633;BME280;61927;50.080;14.418;2022-08-20T09:43:31;99175.78;;;18.73;75.71
73633;BME280;61927;50.080;14.418;2022-08-20T09:45:57;99181.63;;;18.68;75.55
73633;BME280;61927;50.080;14.418;2022-08-20T09:48:22;99177.00;;;18.61;76.21
73633;BME280;61927;50.080;14.418;2022-08-20T09:50:49;99176.03;;;18.52;76.68
73633;BME280;61927;50.080;14.418;2022-08-20T09:53:16;99181.56;;;18.51;76.53
73633;BME280;61927;50.080;14.418;2022-08-20T09:55:43;99185.91;;;18.34;75.93
73633;BME280;61927;50.080;14.418;2022-08-20T09:58:18;99176.63;;;18.28;76.66
73633;BME280;61927;50.080;14.418;2022-08-20T10:00:45;99175.63;;;18.29;76.57
73633;BME280;61927;50.080;14.418;2022-08-20T10:03:11;99178.66;;;18.17;77.16
73633;BME280;61927;50.080;14.418;2022-08-20T10:05:37;99172.25;;;18.27;76.92
73633;BME280;61927;50.080;14.418;2022-08-20T10:08:07;99167.97;;;18.52;76.20
73633;BME280;61927;50.080;14.418;2022-08-20T10:10:34;99172.31;;;18.63;75.06
73633;BME280;61927;50.080;14.418;2022-08-20T10:12:59;99160.47;;;18.56;74.82
73633;BME280;61927;50.080;14.418;2022-08-20T10:15:25;99162.88;;;18.77;74.80
73633;BME280;61927;50.080;14.418;2022-08-20T10:17:50;99176.41;;;18.85;74.06
73633;BME280;61927;50.080;14.418;2022-08-20T10:20:17;99163.03;;;18.93;73.97
73633;BME280;61927;50.080;14.418;2022-08-20T10:22:43;99167.56;;;18.92;73.70
73633;BME280;61927;50.080;14.418;2022-08-20T10:25:09;99172.63;;;18.78;73.96
73633;BME280;61927;50.080;14.418;2022-08-20T10:27:36;99174.75;;;18.56;74.24
73633;BME280;61927;50.080;14.418;2022-08-20T10:30:04;99178.28;;;18.57;74.93
73633;BME280;61927;50.080;14.418;2022-08-20T10:32:31;99179.63;;;18.43;75.56
73633;BME280;61927;50.080;14.418;2022-08-20T10:34:56;99170.81;;;18.51;75.49
73633;BME280;61927;50.080;14.418;2022-08-20T10:37:23;99176.09;;;18.70;75.23
73633;BME280;61927;50.080;14.418;2022-08-20T10:39:50;99180.00;;;18.76;73.76
73633;BME280;61927;50.080;14.418;2022-08-20T10:42:16;99184.53;;;18.75;74.85
73633;BME280;61927;50.080;14.418;2022-08-20T10:44:43;99185.00;;;18.88;73.98
73633;BME280;61927;50.080;14.418;2022-08-20T10:47:21;99183.53;;;19.12;73.68
73633;BME280;61927;50.080;14.418;2022-08-20T10:49:49;99183.97;;;19.25;72.56
73633;BME280;61927;50.080;14.418;2022-08-20T10:52:16;99194.88;;;19.23;72.38
73633;BME280;61927;50.080;14.418;2022-08-20T10:54:42;99189.28;;;19.17;72.64
73633;BME280;61927;50.080;14.418;2022-08-20T10:57:13;99193.22;;;19.04;72.98
73633;BME280;61927;50.080;14.418;2022-08-20T10:59:41;99191.13;;;18.98;73.44
73633;BME280;61927;50.080;14.418;2022-08-20T11:02:07;99198.38;;;18.98;72.65
73633;BME280;61927;50.080;14.418;2022-08-20T11:04:33;99203.66;;;18.90;73.29
73633;BME280;61927;50.080;14.418;2022-08-20T11:07:09;99201.81;;;18.90;73.01
73633;BME280;61927;50.080;14.418;2022-08-20T11:09:35;99200.97;;;18.90;72.65
73633;BME280;61927;50.080;14.418;2022-08-20T11:12:01;99206.13;;;19.01;73.11
73633;BME280;61927;50.080;14.418;2022-08-20T11:14:26;99210.19;;;19.05;72.56
73633;BME280;61927;50.080;14.418;2022-08-20T11:16:52;99214.94;;;19.11;72.88
73633;BME280;61927;50.080;14.418;2022-08-20T11:19:17;99213.50;;;19.17;72.83
73633;BME280;61927;50.080;14.418;2022-08-20T11:21:43;99217.34;;;19.14;72.37
73633;BME280;61927;50.080;14.418;2022-08-20T11:24:08;99217.94;;;19.08;72.77
73633;BME280;61927;50.080;14.418;2022-08-20T11:26:35;99217.09;;;19.08;72.65
73633;BME280;61927;50.080;14.418;2022-08-20T11:29:01;99216.03;;;19.00;72.70
73633;BME280;61927;50.080;14.418;2022-08-20T11:31:26;99216.63;;;18.77;73.94
73633;BME280;61927;50.080;14.418;2022-08-20T11:33:52;99225.41;;;18.79;74.13
73633;BME280;61927;50.080;14.418;2022-08-20T11:36:18;99228.16;;;18.87;74.32
73633;BME280;61927;50.080;14.418;2022-08-20T11:38:43;99222.63;;;18.88;74.45
73633;BME280;61927;50.080;14.418;2022-08-20T11:41:09;99225.31;;;18.88;75.13
73633;BME280;61927;50.080;14.418;2022-08-20T11:43:34;99229.25;;;18.76;75.16
73633;BME280;61927;50.080;14.418;2022-08-20T11:46:00;99224.81;;;18.57;75.82
73633;BME280;61927;50.080;14.418;2022-08-20T11:48:26;99225.56;;;18.50;76.80
73633;BME280;61927;50.080;14.418;2022-08-20T11:50:51;99224.84;;;18.48;76.78
73633;BME280;61927;50.080;14.418;2022-08-20T11:53:17;99232.53;;;18.43;76.66
73633;BME280;61927;50.080;14.418;2022-08-20T11:55:43;99236.06;;;18.43;76.42
73633;BME280;61927;50.080;14.418;2022-08-20T11:58:09;99231.81;;;18.40;76.82
73633;BME280;61927;50.080;14.418;2022-08-20T12:00:35;99232.88;;;18.30;76.56
73633;BME280;61927;50.080;14.418;2022-08-20T12:03:05;99238.13;;;18.22;77.88
73633;BME280;61927;50.080;14.418;2022-08-20T12:05:31;99236.84;;;18.26;77.06
73633;BME280;61927;50.080;14.418;2022-08-20T12:07:59;99235.41;;;18.31;77.07
73633;BME280;61927;50.080;14.418;2022-08-20T12:10:25;99228.59;;;18.37;76.66
73633;BME280;61927;50.080;14.418;2022-08-20T12:12:53;99234.88;;;18.28;76.99
73633;BME280;61927;50.080;14.418;2022-08-20T12:15:19;99244.06;;;18.25;77.23
73633;BME280;61927;50.080;14.418;2022-08-20T12:17:45;99239.25;;;18.29;76.82
73633;BME280;61927;50.080;14.418;2022-08-20T12:20:12;99230.28;;;18.38;76.75
73633;BME280;61927;50.080;14.418;2022-08-20T12:22:38;99231.44;;;18.35;76.62
73633;BME280;61927;50.080;14.418;2022-08-20T12:25:05;99230.25;;;18.20;76.52
73633;BME280;61927;50.080;14.418;2022-08-20T12:27:33;99237.00;;;18.24;76.86
73633;BME280;61927;50.080;14.418;2022-08-20T12:30:01;99232.13;;;18.10;76.49
73633;BME280;61927;50.080;14.418;2022-08-20T12:32:28;99243.16;;;18.07;77.46
73633;BME280;61927;50.080;14.418;2022-08-20T12:34:54;99237.19;;;18.13;77.60
73633;BME280;61927;50.080;14.418;2022-08-20T12:37:24;99235.47;;;18.22;76.57
73633;BME280;61927;50.080;14.418;2022-08-20T12:39:52;99240.13;;;18.20;76.52
73633;BME280;61927;50.080;14.418;2022-08-20T12:42:19;99243.13;;;18.17;77.31
73633;BME280;61927;50.080;14.418;2022-08-20T12:44:45;99241.88;;;18.11;77.27
73633;BME280;61927;50.080;14.418;2022-08-20T12:49:51;99237.34;;;18.12;77.75
73633;BME280;61927;50.080;14.418;2022-08-20T12:52:19;99233.66;;;18.13;78.31
73633;BME280;61927;50.080;14.418;2022-08-20T12:54:45;99237.03;;;18.15;77.85
73633;BME280;61927;50.080;14.418;2022-08-20T12:57:31;99229.53;;;18.18;77.85
73633;BME280;61927;50.080;14.418;2022-08-20T13:00:00;99231.22;;;18.19;78.35
73633;BME280;61927;50.080;14.418;2022-08-20T13:02:26;99228.53;;;18.19;78.56
73633;BME280;61927;50.080;14.418;2022-08-20T13:04:51;99240.38;;;18.26;78.66